Time;durP1;ratioP1;P1;durP2;ratioP2;P2;SDS_P1;SDS_P2;PMS_P1;PMS_P2;Temp;Humidity;BMP_temperature;BMP_pressure;BME280_temperature;BME280_humidity;BME280_pressure;Samples;Min_cycle;Max_cycle;Signal;HPM_P1;HPM_P2
2021/03/16 00:00:51;;;;;;;6.17;2.53;;;;;;;;;;4997186;28;20202;-90
2021/03/16 00:03:18;;;;;;;5.77;2.47;;;4.00;99.90;;;;;;4999602;28;20503;-91
2021/03/16 00:05:44;;;;;;;2.80;1.63;;;4.00;99.90;;;;;;4980643;28;20525;-92
2021/03/16 00:08:11;;;;;;;6.30;2.00;;;4.00;99.90;;;;;;5011033;28;20433;-90
2021/03/16 00:10:38;;;;;;;2.80;2.00;;;4.00;99.90;;;;;;5008443;28;20496;-89
2021/03/16 00:13:05;;;;;;;7.93;2.17;;;4.00;99.90;;;;;;5012719;28;20455;-89
2021/03/16 00:15:31;;;;;;;5.40;2.13;;;4.00;99.90;;;;;;5009772;28;20468;-90
2021/03/16 00:17:57;;;;;;;5.07;2.17;;;4.00;99.90;;;;;;5006378;28;20449;-92
2021/03/16 00:20:24;;;;;;;2.30;1.13;;;4.10;99.90;;;;;;4996377;28;20449;-89
2021/03/16 00:22:50;;;;;;;5.23;2.57;;;4.10;99.90;;;;;;4996935;28;20933;-92
2021/03/16 00:25:17;;;;;;;5.87;2.20;;;4.10;99.90;;;;;;4997893;28;20480;-90
2021/03/16 00:27:44;;;;;;;7.13;2.60;;;4.00;99.90;;;;;;4999506;28;20445;-93
2021/03/16 00:30:11;;;;;;;6.90;2.50;;;4.00;99.90;;;;;;5000085;28;20997;-93
2021/03/16 00:32:38;;;;;;;5.17;2.10;;;3.90;99.90;;;;;;5002328;28;20515;-91
2021/03/16 00:35:05;;;;;;;5.53;1.83;;;3.90;99.90;;;;;;5005849;28;20484;-91
2021/03/16 00:37:32;;;;;;;2.80;1.83;;;4.00;99.90;;;;;;5012092;28;20441;-89
2021/03/16 00:39:58;;;;;;;3.87;1.27;;;4.00;99.90;;;;;;4999493;28;20464;-89
2021/03/16 00:42:24;;;;;;;3.37;2.43;;;3.90;99.90;;;;;;4996854;28;20952;-95
2021/03/16 00:44:51;;;;;;;3.73;2.27;;;3.90;99.90;;;;;;4996675;28;20446;-90
2021/03/16 00:47:19;;;;;;;2.73;1.63;;;3.80;99.90;;;;;;4995973;28;20446;-94
2021/03/16 00:49:46;;;;;;;4.80;1.60;;;3.80;99.90;;;;;;4996342;28;20441;-91
2021/03/16 00:52:12;;;;;;;5.90;2.63;;;3.80;99.90;;;;;;4994274;28;20465;-91
2021/03/16 00:54:38;;;;;;;2.80;2.00;;;3.80;99.90;;;;;;4995626;28;20874;-88
2021/03/16 00:57:05;;;;;;;4.93;2.30;;;3.70;99.90;;;;;;4996003;28;20488;-90
2021/03/16 00:59:31;;;;;;;4.53;1.77;;;3.80;99.90;;;;;;4996551;28;20498;-91
2021/03/16 01:01:59;;;;;;;7.90;1.80;;;3.80;99.90;;;;;;4996713;28;20925;-94
2021/03/16 01:04:25;;;;;;;4.27;2.00;;;3.80;99.90;;;;;;4996569;28;20479;-93
2021/03/16 01:06:51;;;;;;;1.90;1.57;;;3.80;99.90;;;;;;4997249;28;20457;-89
2021/03/16 01:09:18;;;;;;;3.73;2.00;;;3.80;99.90;;;;;;4998819;28;20452;-93
2021/03/16 01:11:44;;;;;;;4.83;2.50;;;3.70;99.90;;;;;;4999938;28;20608;-89
2021/03/16 01:14:11;;;;;;;3.60;2.10;;;3.70;99.90;;;;;;4999577;28;20470;-90
2021/03/16 01:16:37;;;;;;;6.27;2.07;;;3.70;99.90;;;;;;4958438;29;20451;-89
2021/03/16 01:19:05;;;;;;;1.53;1.43;;;3.70;99.90;;;;;;4958889;29;20450;-90
2021/03/16 01:21:31;;;;;;;4.10;2.50;;;3.60;99.90;;;;;;4957959;28;20478;-91
2021/03/16 01:23:57;;;;;;;5.50;2.20;;;3.60;99.90;;;;;;4959004;29;20984;-91
2021/03/16 01:26:23;;;;;;;3.30;2.30;;;3.60;99.90;;;;;;4958867;29;20931;-91
2021/03/16 01:28:50;;;;;;;4.73;2.60;;;3.60;99.90;;;;;;4958723;29;20447;-89
2021/03/16 01:31:16;;;;;;;3.40;2.10;;;3.60;99.90;;;;;;4955196;29;20499;-94
2021/03/16 01:33:42;;;;;;;6.97;2.23;;;3.60;99.90;;;;;;4958419;28;20471;-90
2021/03/16 01:36:10;;;;;;;3.30;2.43;;;3.60;99.90;;;;;;5001095;28;20476;-90
2021/03/16 01:38:36;;;;;;;3.37;1.50;;;3.60;99.90;;;;;;5011616;28;20445;-89
2021/03/16 01:41:02;;;;;;;3.97;2.40;;;3.70;99.90;;;;;;5000374;28;20464;-90
2021/03/16 01:43:30;;;;;;;5.20;2.30;;;3.60;99.90;;;;;;4998859;28;20441;-93
2021/03/16 01:45:57;;;;;;;2.30;1.17;;;3.60;99.90;;;;;;4999897;28;20467;-94
2021/03/16 01:48:26;;;;;;;3.63;2.07;;;3.50;99.90;;;;;;4998866;28;20456;-91
2021/03/16 01:50:53;;;;;;;3.03;2.20;;;3.50;99.90;;;;;;4999004;28;20496;-89
2021/03/16 01:53:20;;;;;;;2.77;2.20;;;3.60;99.90;;;;;;4998485;28;20461;-95
2021/03/16 01:55:49;;;;;;;6.07;2.97;;;5.80;99.90;;;;;;4997910;28;20429;-93
2021/03/16 01:58:16;;;;;;;5.20;2.20;;;3.50;99.90;;;;;;4997947;28;20479;-90
2021/03/16 02:00:43;;;;;;;8.73;3.67;;;3.60;99.90;;;;;;4998023;28;20816;-91
2021/03/16 02:03:11;;;;;;;9.13;2.73;;;3.50;99.90;;;;;;4999126;28;20458;-93
2021/03/16 02:05:37;;;;;;;9.20;2.50;;;3.50;99.90;;;;;;4993741;28;20457;-94
2021/03/16 02:08:11;;;;;;;5.90;3.10;;;3.50;99.90;;;;;;4998851;28;20448;-93
2021/03/16 02:10:45;;;;;;;6.60;2.87;;;3.50;99.90;;;;;;4995060;28;20520;-93
2021/03/16 02:13:19;;;;;;;7.00;2.53;;;3.50;99.90;;;;;;4997250;28;20448;-92
2021/03/16 02:15:49;;;;;;;4.40;2.00;;;3.50;99.90;;;;;;4997460;28;20449;-88
2021/03/16 02:18:19;;;;;;;4.70;2.00;;;3.50;99.90;;;;;;4997187;28;20916;-94
2021/03/16 02:21:02;;;;;;;7.33;1.97;;;3.50;99.90;;;;;;4996620;28;20452;-92
2021/03/16 02:23:46;;;;;;;6.20;3.40;;;3.50;99.90;;;;;;4997326;28;20456;-91
2021/03/16 02:26:28;;;;;;;7.27;2.43;;;3.50;99.90;;;;;;4997998;28;20999;-88
2021/03/16 02:29:09;;;;;;;5.00;2.77;;;3.40;99.90;;;;;;4997611;28;20480;-94
2021/03/16 02:31:38;;;;;;;6.50;3.00;;;3.50;99.90;;;;;;4997078;28;20850;-91
2021/03/16 02:34:06;;;;;;;4.37;2.73;;;3.50;99.90;;;;;;4997481;28;20496;-90
2021/03/16 02:36:33;;;;;;;2.40;1.63;;;3.50;99.90;;;;;;4996152;28;20445;-90
2021/03/16 02:39:03;;;;;;;4.27;1.93;;;3.50;99.90;;;;;;4997271;28;20818;-90
2021/03/16 02:41:30;;;;;;;2.57;1.50;;;3.50;99.90;;;;;;4997439;28;20444;-91
2021/03/16 02:43:58;;;;;;;1.80;1.43;;;3.40;99.90;;;;;;4997859;28;20437;-90
2021/03/16 02:46:25;;;;;;;7.87;2.53;;;3.40;99.90;;;;;;4997449;28;20445;-94
2021/03/16 02:48:54;;;;;;;8.13;2.20;;;3.40;99.90;;;;;;4997453;28;20957;-92
2021/03/16 02:51:22;;;;;;;2.73;1.80;;;3.40;99.90;;;;;;4996965;28;20848;-94
2021/03/16 02:53:50;;;;;;;6.03;2.57;;;3.40;99.90;;;;;;5011363;28;20459;-90
2021/03/16 02:56:17;;;;;;;2.00;1.07;;;3.40;99.90;;;;;;5005286;28;20527;-92
2021/03/16 02:58:45;;;;;;;7.33;2.40;;;3.40;99.90;;;;;;4996649;28;20532;-90
2021/03/16 03:01:14;;;;;;;5.57;2.67;;;3.30;99.90;;;;;;4992544;28;20913;-92
2021/03/16 03:03:44;;;;;;;0.70;0.57;;;3.40;99.90;;;;;;4997240;28;20449;-93
2021/03/16 03:06:13;;;;;;;7.10;2.77;;;3.30;99.90;;;;;;4975884;28;20829;-91
2021/03/16 03:08:40;;;;;;;4.97;2.33;;;3.30;99.90;;;;;;4996865;28;20446;-92
2021/03/16 03:11:07;;;;;;;7.70;3.00;;;3.40;99.90;;;;;;4994359;28;20584;-93
2021/03/16 03:13:33;;;;;;;5.40;2.70;;;3.40;99.90;;;;;;4998461;28;20461;-90
2021/03/16 03:15:59;;;;;;;2.20;1.63;;;3.40;99.90;;;;;;4996982;28;20802;-94
2021/03/16 03:18:26;;;;;;;2.40;1.33;;;3.30;99.90;;;;;;4997564;28;20452;-92
2021/03/16 03:20:53;;;;;;;4.03;2.20;;;3.30;99.90;;;;;;4994177;28;20489;-91
2021/03/16 03:23:25;;;;;;;1.30;1.00;;;3.30;99.90;;;;;;4996871;28;20456;-91
2021/03/16 03:25:55;;;;;;;3.23;1.70;;;3.20;99.90;;;;;;4996229;28;20523;-91
2021/03/16 03:28:25;;;;;;;3.07;1.43;;;3.30;99.90;;;;;;4991311;28;20949;-93
2021/03/16 03:30:53;;;;;;;5.30;1.67;;;3.30;99.90;;;;;;5008392;28;20485;-89
2021/03/16 03:33:22;;;;;;;4.07;2.10;;;3.20;99.90;;;;;;5014029;28;20453;-88
2021/03/16 03:35:49;;;;;;;12.73;2.43;;;3.20;99.90;;;;;;5013732;28;20452;-89
2021/03/16 03:38:18;;;;;;;4.53;2.00;;;3.30;99.90;;;;;;5006764;28;20438;-90
2021/03/16 03:40:45;;;;;;;5.77;1.60;;;3.30;99.90;;;;;;5001181;28;20455;-91
2021/03/16 03:43:12;;;;;;;8.30;2.00;;;3.30;99.90;;;;;;4995910;28;20457;-89
2021/03/16 03:45:40;;;;;;;2.63;1.90;;;3.30;99.90;;;;;;4995686;28;20825;-89
2021/03/16 03:48:09;;;;;;;5.67;2.33;;;3.20;99.90;;;;;;4995892;28;20461;-91
2021/03/16 03:50:38;;;;;;;4.53;2.17;;;3.30;99.90;;;;;;4996689;28;20480;-92
2021/03/16 03:53:06;;;;;;;2.43;1.30;;;3.20;99.90;;;;;;4998204;28;20460;-89
2021/03/16 03:55:34;;;;;;;5.00;1.80;;;3.20;99.90;;;;;;4997714;28;20445;-89
2021/03/16 03:58:01;;;;;;;7.03;2.07;;;;;;;;;;4997440;28;20481;-93
2021/03/16 04:00:27;;;;;;;5.77;1.90;;;3.20;99.90;;;;;;4997517;28;20798;-92
2021/03/16 04:02:55;;;;;;;5.00;1.93;;;3.30;99.90;;;;;;4993783;28;20487;-91
2021/03/16 04:05:21;;;;;;;6.27;2.87;;;3.20;99.90;;;;;;4995282;28;20453;-92
2021/03/16 04:07:50;;;;;;;5.97;1.43;;;3.30;99.90;;;;;;4995477;28;20499;-93
2021/03/16 04:10:17;;;;;;;4.10;1.73;;;3.20;99.90;;;;;;4995907;28;20481;-94
2021/03/16 04:12:45;;;;;;;4.00;1.90;;;3.30;99.90;;;;;;4995636;28;20457;-93
2021/03/16 04:15:14;;;;;;;2.20;1.47;;;3.10;99.90;;;;;;4995591;28;20461;-93
2021/03/16 04:17:43;;;;;;;3.80;1.93;;;3.10;99.90;;;;;;4995546;28;20453;-92
2021/03/16 04:20:11;;;;;;;4.83;1.60;;;3.10;99.90;;;;;;4994741;28;20453;-93
2021/03/16 04:22:38;;;;;;;6.53;2.30;;;3.10;99.90;;;;;;4994882;28;20456;-93
2021/03/16 04:25:06;;;;;;;3.33;1.30;;;3.00;99.90;;;;;;4994700;28;20449;-91
2021/03/16 04:27:33;;;;;;;3.43;2.00;;;3.00;99.90;;;;;;4995256;28;20449;-91
2021/03/16 04:30:01;;;;;;;5.60;1.90;;;2.90;99.90;;;;;;4995327;28;20960;-90
2021/03/16 04:32:27;;;;;;;2.50;1.73;;;3.00;99.90;;;;;;4995116;28;20480;-94
2021/03/16 04:34:53;;;;;;;1.93;1.50;;;3.00;99.90;;;;;;4995090;28;20460;-89
2021/03/16 04:37:20;;;;;;;5.90;1.90;;;3.10;99.90;;;;;;4994695;28;20500;-91
2021/03/16 04:39:46;;;;;;;4.13;1.80;;;3.10;99.90;;;;;;4995704;28;20456;-91
2021/03/16 04:42:12;;;;;;;1.60;1.10;;;3.10;99.90;;;;;;4999427;28;20457;-92
2021/03/16 04:44:39;;;;;;;1.77;1.23;;;;;;;;;;4999194;28;20932;-93
2021/03/16 04:47:06;;;;;;;1.97;1.30;;;3.20;99.90;;;;;;4999082;28;20453;-94
2021/03/16 04:49:33;;;;;;;2.00;1.00;;;3.20;99.90;;;;;;4999400;28;20448;-90
2021/03/16 04:51:59;;;;;;;7.20;1.77;;;3.10;99.90;;;;;;4997783;28;20848;-91
2021/03/16 04:54:26;;;;;;;6.67;1.77;;;3.10;99.90;;;;;;4999038;28;20504;-90
2021/03/16 04:56:52;;;;;;;3.93;1.30;;;3.10;99.90;;;;;;4998772;28;20464;-94
2021/03/16 04:59:19;;;;;;;5.00;1.53;;;;;;;;;;4998753;28;20483;-93
2021/03/16 05:01:45;;;;;;;3.33;1.10;;;3.10;99.90;;;;;;5013869;28;20453;-89
2021/03/16 05:04:12;;;;;;;3.17;1.67;;;3.10;99.90;;;;;;5004702;28;20975;-95
2021/03/16 05:06:39;;;;;;;3.07;0.60;;;3.10;99.90;;;;;;4998761;28;20444;-94
2021/03/16 05:09:05;;;;;;;1.93;0.67;;;3.10;99.90;;;;;;5002741;28;20429;-88
2021/03/16 05:11:32;;;;;;;4.40;1.30;;;3.10;99.90;;;;;;5015395;28;20584;-89
2021/03/16 05:13:59;;;;;;;3.63;1.10;;;3.10;99.90;;;;;;5000989;28;20464;-93
2021/03/16 05:16:25;;;;;;;6.10;1.80;;;3.10;99.90;;;;;;4998211;28;20436;-92
2021/03/16 05:18:51;;;;;;;5.20;1.67;;;3.10;99.90;;;;;;4998411;28;20453;-93
2021/03/16 05:21:18;;;;;;;2.60;1.47;;;3.20;99.90;;;;;;4997791;28;20492;-91
2021/03/16 05:23:45;;;;;;;3.83;1.60;;;3.20;99.90;;;;;;4998131;28;20944;-93
2021/03/16 05:26:11;;;;;;;8.20;2.00;;;;;;;;;;4998032;28;20453;-94
2021/03/16 05:28:37;;;;;;;3.83;1.20;;;3.20;99.90;;;;;;4998257;28;20453;-93
2021/03/16 05:31:04;;;;;;;4.60;1.70;;;3.20;99.90;;;;;;4997809;28;20865;-92
2021/03/16 05:33:30;;;;;;;4.23;1.53;;;3.20;99.90;;;;;;4995167;28;20933;-94
2021/03/16 05:35:57;;;;;;;3.50;1.57;;;3.20;99.90;;;;;;4997310;28;20484;-94
2021/03/16 05:38:24;;;;;;;4.30;1.57;;;3.20;99.90;;;;;;4997563;28;20503;-90
2021/03/16 05:40:50;;;;;;;5.10;1.80;;;3.20;99.90;;;;;;4997542;28;20457;-94
2021/03/16 05:43:17;;;;;;;4.13;1.20;;;;;;;;;;4997367;28;20441;-93
2021/03/16 05:45:44;;;;;;;2.40;0.90;;;3.30;99.90;;;;;;4998042;28;20787;-91
2021/03/16 05:48:11;;;;;;;4.30;1.43;;;3.30;99.90;;;;;;5003808;28;20453;-90
2021/03/16 05:50:38;;;;;;;3.70;0.90;;;3.30;99.90;;;;;;4997135;28;20492;-92
2021/03/16 05:53:07;;;;;;;1.80;1.40;;;3.20;99.90;;;;;;4994818;28;20963;-90
2021/03/16 05:55:34;;;;;;;1.50;1.00;;;3.20;99.90;;;;;;4997484;28;20913;-94
2021/03/16 05:58:01;;;;;;;4.67;1.47;;;3.30;99.90;;;;;;4997215;28;20543;-94
2021/03/16 06:00:28;;;;;;;2.07;0.73;;;3.30;99.90;;;;;;4963505;28;20515;-93
2021/03/16 06:02:54;;;;;;;6.37;1.67;;;3.30;99.90;;;;;;4997726;28;20449;-94
2021/03/16 06:05:29;;;;;;;3.00;1.73;;;;;;;;;;4991911;28;20447;-94
2021/03/16 06:07:58;;;;;;;5.60;1.77;;;3.30;99.90;;;;;;4979773;28;20995;-94
2021/03/16 06:10:25;;;;;;;1.20;1.10;;;4.20;99.90;;;;;;4982328;28;20474;-93
2021/03/16 06:12:58;;;;;;;7.60;1.90;;;3.40;99.90;;;;;;4992758;28;20471;-89
2021/03/16 06:15:27;;;;;;;8.30;2.47;;;3.70;99.90;;;;;;4979511;28;20793;-95
2021/03/16 06:17:55;;;;;;;6.37;3.53;;;3.50;99.90;;;;;;4980079;28;20512;-93
2021/03/16 06:20:30;;;;;;;4.23;1.80;;;3.40;99.90;;;;;;4991764;28;20454;-95
2021/03/16 06:23:08;;;;;;;4.30;2.10;;;3.40;99.90;;;;;;4984264;28;20433;-93
2021/03/16 06:25:39;;;;;;;2.87;1.07;;;3.40;99.90;;;;;;4997612;28;20457;-90
2021/03/16 06:28:10;;;;;;;2.30;1.23;;;4.00;99.90;;;;;;4989495;28;20456;-93
2021/03/16 06:30:38;;;;;;;3.93;2.00;;;;;;;;;;4994915;28;20485;-91
2021/03/16 06:33:05;;;;;;;5.40;1.60;;;;;;;;;;4995859;28;20449;-95
2021/03/16 06:35:38;;;;;;;5.30;2.10;;;3.50;99.90;;;;;;4986588;28;20519;-93
2021/03/16 06:38:07;;;;;;;4.30;1.50;;;4.20;99.90;;;;;;4985470;28;20544;-93
2021/03/16 06:40:34;;;;;;;7.57;2.27;;;3.50;99.90;;;;;;4987221;28;20462;-94
2021/03/16 06:43:09;;;;;;;2.97;1.60;;;3.50;99.90;;;;;;4986953;28;20443;-91
2021/03/16 06:45:39;;;;;;;1.73;1.43;;;4.40;99.90;;;;;;4986449;28;20450;-87
2021/03/16 06:48:18;;;;;;;2.83;1.47;;;3.50;99.90;;;;;;4976563;28;20460;-92
2021/03/16 06:50:45;;;;;;;4.17;1.07;;;3.50;99.90;;;;;;4977972;28;20486;-88
2021/03/16 06:53:26;;;;;;;3.03;1.90;;;3.50;99.90;;;;;;4983826;28;20447;-88
2021/03/16 06:55:53;;;;;;;2.00;1.30;;;3.50;99.90;;;;;;4996061;28;20917;-89
2021/03/16 06:58:27;;;;;;;3.50;1.67;;;3.50;99.90;;;;;;4988500;28;20489;-89
2021/03/16 07:01:16;;;;;;;4.53;1.00;;;3.50;99.90;;;;;;4985726;28;20454;-88
2021/03/16 07:03:45;;;;;;;5.03;1.70;;;3.30;99.90;;;;;;4983916;28;20454;-88
2021/03/16 07:06:13;;;;;;;5.50;1.20;;;3.30;99.90;;;;;;4985485;28;20442;-92
2021/03/16 07:08:40;;;;;;;2.00;1.47;;;3.30;99.90;;;;;;5003585;28;20820;-89
2021/03/16 07:11:11;;;;;;;2.70;0.70;;;3.30;99.90;;;;;;4998371;28;20489;-88
2021/03/16 07:13:39;;;;;;;8.10;2.67;;;3.30;99.90;;;;;;4997784;28;20449;-90
2021/03/16 07:16:09;;;;;;;6.47;2.70;;;3.20;99.90;;;;;;4997059;28;20490;-93
2021/03/16 07:18:37;;;;;;;10.77;2.17;;;3.20;99.90;;;;;;4997598;28;20452;-90
2021/03/16 07:21:05;;;;;;;9.43;2.37;;;3.30;99.90;;;;;;4976815;28;20458;-91
2021/03/16 07:23:38;;;;;;;1.77;0.90;;;3.30;99.90;;;;;;4974737;28;20450;-92
2021/03/16 07:26:05;;;;;;;0.63;0.57;;;3.30;99.90;;;;;;4976444;28;20513;-90
2021/03/16 07:28:33;;;;;;;5.73;2.10;;;3.30;99.90;;;;;;5001557;28;20445;-89
2021/03/16 07:31:01;;;;;;;3.63;1.33;;;3.20;99.90;;;;;;4991169;28;20502;-93
2021/03/16 07:33:28;;;;;;;4.47;2.53;;;3.10;99.90;;;;;;4980345;28;20506;-93
2021/03/16 07:35:56;;;;;;;6.20;3.00;;;3.10;99.90;;;;;;4974618;28;20465;-92
2021/03/16 07:38:24;;;;;;;4.80;1.80;;;3.20;99.90;;;;;;4985768;28;20447;-94
2021/03/16 07:40:54;;;;;;;2.43;1.90;;;3.30;99.90;;;;;;4984451;28;20489;-92
2021/03/16 07:43:31;;;;;;;6.30;1.60;;;3.40;99.90;;;;;;4983134;28;20457;-93
2021/03/16 07:46:09;;;;;;;3.83;1.07;;;5.80;99.90;;;;;;4967451;28;20477;-89
2021/03/16 07:48:40;;;;;;;4.50;1.40;;;3.40;99.90;;;;;;4961855;28;20458;-92
2021/03/16 07:51:15;;;;;;;9.60;2.67;;;3.60;99.90;;;;;;4976541;28;20489;-91
2021/03/16 07:53:42;;;;;;;8.90;2.20;;;3.70;99.90;;;;;;4978528;28;20457;-91
2021/03/16 07:56:10;;;;;;;8.80;2.20;;;3.90;99.90;;;;;;4974665;28;20485;-93
2021/03/16 07:58:47;;;;;;;5.77;2.17;;;4.10;99.90;;;;;;5005658;22;20481;-91
2021/03/16 13:10:59;;;;;;;6.03;2.50;;;7.00;99.90;;;;;;5140319;27;20541;-92
2021/03/16 13:13:32;;;;;;;4.10;1.63;;;7.30;99.90;;;;;;5135777;27;20441;-93
2021/03/16 13:15:59;;;;;;;9.33;1.80;;;6.70;99.80;;;;;;5134957;28;20840;-92
2021/03/16 13:18:25;;;;;;;3.10;1.80;;;;;;;;;;5134447;27;20447;-93
2021/03/16 13:20:52;;;;;;;3.33;1.60;;;7.40;99.40;;;;;;5134597;27;20922;-93
2021/03/16 13:23:18;;;;;;;2.77;1.70;;;;;;;;;;5135054;27;20449;-93
2021/03/16 13:25:45;;;;;;;5.10;1.80;;;7.70;98.90;;;;;;5133495;28;20450;-93
2021/03/16 13:28:12;;;;;;;2.93;1.47;;;8.30;98.50;;;;;;5134995;27;20805;-93
2021/03/16 13:30:38;;;;;;;1.10;0.83;;;7.70;97.80;;;;;;5133742;28;20592;-92
2021/03/16 13:33:05;;;;;;;4.30;1.40;;;7.80;97.60;;;;;;5133722;27;20446;-93
2021/03/16 13:35:32;;;;;;;3.03;2.17;;;7.10;99.90;;;;;;5134925;27;20443;-91
2021/03/16 13:37:59;;;;;;;2.50;1.23;;;7.20;99.30;;;;;;5135411;27;20451;-93
2021/03/16 13:40:25;;;;;;;5.70;1.60;;;7.30;99.60;;;;;;5133584;27;20443;-92
2021/03/16 13:42:51;;;;;;;2.00;1.20;;;7.30;99.90;;;;;;5132728;28;20471;-92
2021/03/16 13:47:13;;;;;;;2.93;1.70;;;7.00;99.60;;;;;;5072478;27;20561;-90
2021/03/16 13:49:39;;;;;;;2.10;1.10;;;7.20;99.90;;;;;;5075271;28;20457;-90
2021/03/16 13:52:06;;;;;;;10.10;1.70;;;6.60;99.00;;;;;;5037700;28;20444;-89
2021/03/16 13:54:32;;;;;;;5.60;1.50;;;6.50;99.90;;;;;;5034427;28;20522;-89
2021/03/16 13:57:01;;;;;;;5.13;1.20;;;6.40;99.90;;;;;;5035087;28;20566;-92
2021/03/16 13:59:27;;;;;;;3.93;1.73;;;6.20;99.90;;;;;;5032591;28;20432;-91
2021/03/16 14:01:54;;;;;;;2.07;0.80;;;6.20;99.90;;;;;;5037033;28;20474;-92
2021/03/16 14:04:21;;;;;;;2.10;1.03;;;6.10;99.90;;;;;;5036982;28;20469;-92
2021/03/16 14:06:47;;;;;;;2.23;0.93;;;6.30;99.90;;;;;;5038092;28;20483;-90
2021/03/16 14:09:21;;;;;;;3.03;0.73;;;6.70;99.90;;;;;;5036687;28;20815;-91
2021/03/16 14:11:47;;;;;;;3.87;1.23;;;7.10;99.90;;;;;;5040648;28;20487;-90
2021/03/16 14:14:14;;;;;;;4.83;1.30;;;7.20;99.90;;;;;;5036185;28;20529;-91
2021/03/16 14:16:40;;;;;;;1.67;1.20;;;7.30;99.90;;;;;;5041975;28;20462;-89
2021/03/16 14:19:07;;;;;;;6.60;1.53;;;7.10;99.80;;;;;;5034769;28;20443;-90
2021/03/16 14:21:34;;;;;;;3.00;1.20;;;7.10;99.80;;;;;;5035345;28;20435;-89
2021/03/16 14:24:01;;;;;;;0.87;0.70;;;7.30;99.90;;;;;;5058085;28;20945;-90
2021/03/16 14:26:27;;;;;;;0.80;0.57;;;7.20;99.30;;;;;;5078096;28;20872;-89
2021/03/16 14:28:53;;;;;;;1.83;1.00;;;7.20;98.60;;;;;;5079504;28;20445;-90
2021/03/16 14:31:20;;;;;;;7.67;1.30;;;7.20;98.60;;;;;;5073903;28;20472;-93
2021/03/16 14:33:46;;;;;;;2.83;1.10;;;7.70;98.50;;;;;;5062820;28;20465;-92
2021/03/16 14:36:13;;;;;;;2.77;1.00;;;7.60;99.90;;;;;;5062508;28;20492;-91
2021/03/16 14:38:40;;;;;;;7.23;1.30;;;7.60;98.20;;;;;;5063627;28;20856;-87
2021/03/16 14:41:06;;;;;;;2.47;1.10;;;8.00;97.80;;;;;;5039168;28;20458;-90
2021/03/16 14:43:34;;;;;;;4.13;1.30;;;8.10;96.90;;;;;;5071472;28;20468;-94
2021/03/16 14:46:00;;;;;;;1.10;0.80;;;7.60;99.90;;;;;;5066589;28;20497;-90
2021/03/16 14:48:26;;;;;;;1.27;0.50;;;7.80;97.20;;;;;;5051725;28;20524;-95
2021/03/16 14:50:53;;;;;;;1.40;1.20;;;7.70;97.20;;;;;;5053150;28;20453;-89
2021/03/16 14:53:20;;;;;;;2.60;1.00;;;7.40;97.20;;;;;;5051788;28;20446;-90
2021/03/16 14:55:47;;;;;;;2.30;0.93;;;7.00;99.90;;;;;;5040312;28;20448;-92
2021/03/16 14:58:14;;;;;;;4.27;1.00;;;7.10;98.20;;;;;;5025875;28;20448;-95
2021/03/16 15:00:41;;;;;;;5.57;1.10;;;6.90;99.90;;;;;;5022864;28;20440;-92
2021/03/16 15:03:08;;;;;;;1.57;0.70;;;6.80;99.90;;;;;;5027469;28;20452;-95
2021/03/16 15:05:35;;;;;;;1.40;0.80;;;7.20;98.40;;;;;;5029637;28;20483;-94
2021/03/16 15:08:01;;;;;;;2.67;1.30;;;7.00;99.20;;;;;;5020907;28;20456;-94
2021/03/16 15:10:27;;;;;;;8.33;1.57;;;7.10;99.10;;;;;;5021303;28;20443;-93
2021/03/16 15:12:54;;;;;;;1.63;0.93;;;7.00;98.70;;;;;;5019664;28;20449;-93
2021/03/16 15:15:21;;;;;;;3.33;1.10;;;;;;;;;;5019264;28;20491;-92
2021/03/16 15:17:48;;;;;;;3.00;1.30;;;6.80;99.90;;;;;;5016115;28;20510;-90
2021/03/16 15:20:14;;;;;;;3.47;1.30;;;6.90;99.90;;;;;;5016275;28;20452;-91
2021/03/16 15:22:41;;;;;;;2.93;0.87;;;7.30;99.90;;;;;;5015739;28;20463;-90
2021/03/16 15:25:08;;;;;;;3.50;1.20;;;7.30;99.90;;;;;;5014789;28;20448;-90
2021/03/16 15:27:34;;;;;;;0.60;0.47;;;6.70;99.90;;;;;;5016568;28;20452;-86
2021/03/16 15:30:02;;;;;;;2.10;1.10;;;6.60;99.90;;;;;;5018205;28;20468;-89
2021/03/16 15:32:28;;;;;;;4.00;1.27;;;6.50;99.90;;;;;;5016014;28;20566;-89
2021/03/16 15:34:54;;;;;;;9.33;2.00;;;6.40;99.90;;;;;;5015847;28;20463;-89
2021/03/16 15:37:21;;;;;;;4.33;1.70;;;6.20;99.90;;;;;;5019962;28;20510;-93
2021/03/16 15:39:47;;;;;;;7.90;3.20;;;;;;;;;;5017757;28;20452;-93
2021/03/16 15:42:14;;;;;;;3.40;1.67;;;6.00;99.90;;;;;;5017154;28;20530;-91
2021/03/16 15:44:40;;;;;;;4.93;2.03;;;5.90;99.90;;;;;;5015058;28;20479;-91
2021/03/16 15:47:09;;;;;;;10.13;1.70;;;5.90;99.90;;;;;;5016784;28;20508;-92
2021/03/16 15:49:35;;;;;;;2.00;0.80;;;6.00;99.90;;;;;;5030101;28;20447;-87
2021/03/16 15:52:01;;;;;;;4.10;1.67;;;5.80;99.90;;;;;;5054704;28;20439;-87
2021/03/16 15:54:27;;;;;;;2.13;1.33;;;5.50;99.90;;;;;;5054304;28;20459;-90
2021/03/16 15:56:54;;;;;;;3.00;1.80;;;5.60;99.90;;;;;;5055538;28;20454;-92
2021/03/16 15:59:20;;;;;;;1.33;1.20;;;5.50;99.90;;;;;;5056623;28;20469;-94
2021/03/16 16:01:47;;;;;;;1.30;1.03;;;5.50;99.90;;;;;;5060291;28;20447;-89
2021/03/16 16:04:14;;;;;;;4.73;2.00;;;5.30;99.90;;;;;;5049794;28;21055;-89
2021/03/16 16:06:41;;;;;;;2.50;1.60;;;5.40;99.90;;;;;;5035613;28;20501;-85
2021/03/16 16:09:07;;;;;;;3.67;1.17;;;5.30;99.90;;;;;;5033640;28;20455;-88
2021/03/16 16:11:34;;;;;;;3.97;2.03;;;5.30;99.90;;;;;;5033390;28;20459;-90
2021/03/16 16:14:00;;;;;;;1.83;1.47;;;5.30;99.90;;;;;;5034670;28;20448;-90
2021/03/16 16:16:26;;;;;;;3.77;2.10;;;5.30;99.90;;;;;;5034641;28;20458;-86
2021/03/16 16:18:53;;;;;;;6.70;2.13;;;5.20;99.90;;;;;;5033933;28;20475;-87
2021/03/16 16:21:20;;;;;;;3.03;1.47;;;5.10;99.90;;;;;;5033835;28;20505;-87
2021/03/16 16:23:46;;;;;;;3.70;2.67;;;5.10;99.90;;;;;;5034048;28;20501;-88
2021/03/16 16:26:12;;;;;;;5.03;2.63;;;5.10;99.90;;;;;;5033138;28;20487;-88
2021/03/16 16:28:40;;;;;;;1.87;1.37;;;5.00;99.90;;;;;;5034164;28;20466;-85
2021/03/16 16:31:06;;;;;;;2.20;1.53;;;4.70;99.90;;;;;;5034262;28;20463;-86
2021/03/16 16:33:32;;;;;;;5.10;3.00;;;;;;;;;;5033933;28;20447;-85
2021/03/16 16:35:59;;;;;;;3.90;2.47;;;4.50;99.90;;;;;;5034570;28;20521;-88
2021/03/16 16:38:26;;;;;;;2.60;1.70;;;4.00;99.90;;;;;;5034292;28;20440;-88
2021/03/16 16:40:54;;;;;;;3.60;2.13;;;4.50;99.90;;;;;;5033991;28;20456;-92
2021/03/16 16:43:21;;;;;;;6.13;2.47;;;4.50;99.90;;;;;;5035322;28;20964;-90
2021/03/16 16:45:48;;;;;;;5.77;2.57;;;4.50;99.90;;;;;;5034843;28;20495;-93
2021/03/16 16:48:15;;;;;;;9.60;2.17;;;4.40;99.90;;;;;;5037925;28;20446;-93
2021/03/16 16:50:42;;;;;;;5.00;2.73;;;4.40;99.90;;;;;;5034731;28;20514;-94
2021/03/16 16:53:08;;;;;;;4.83;2.60;;;4.50;99.90;;;;;;5042819;28;20448;-88
2021/03/16 16:55:36;;;;;;;2.43;1.33;;;4.40;99.90;;;;;;5053670;23;20471;-88
2021/03/16 16:58:02;;;;;;;8.30;2.17;;;4.40;99.90;;;;;;5054851;22;20518;-88
2021/03/16 17:00:28;;;;;;;4.67;1.40;;;4.40;99.90;;;;;;5040467;28;20452;-95
2021/03/16 17:02:55;;;;;;;3.10;1.70;;;4.40;99.90;;;;;;5040140;28;20493;-93
2021/03/16 17:05:21;;;;;;;4.33;1.70;;;4.40;99.90;;;;;;5039061;28;20491;-95
2021/03/16 17:07:48;;;;;;;2.93;2.23;;;4.30;99.90;;;;;;5048226;28;20454;-87
2021/03/16 17:10:16;;;;;;;5.13;3.13;;;4.40;99.90;;;;;;5038548;28;20513;-95
2021/03/16 17:12:43;;;;;;;6.80;3.43;;;4.40;99.90;;;;;;5041357;28;20447;-93
2021/03/16 17:15:11;;;;;;;4.47;2.97;;;4.40;99.90;;;;;;5037418;28;20501;-92
2021/03/16 17:17:38;;;;;;;5.30;2.43;;;4.40;99.90;;;;;;5016070;28;20452;-92
2021/03/16 17:20:05;;;;;;;4.23;2.70;;;4.40;99.90;;;;;;5020096;28;20468;-88
2021/03/16 17:22:32;;;;;;;6.87;3.07;;;4.40;99.90;;;;;;5018422;28;20453;-95
2021/03/16 17:25:00;;;;;;;4.03;2.77;;;4.40;99.90;;;;;;5018072;28;20437;-93
2021/03/16 17:27:27;;;;;;;4.70;2.77;;;4.50;99.90;;;;;;5017820;28;20492;-87
2021/03/16 17:29:54;;;;;;;7.33;3.17;;;4.50;99.90;;;;;;5014545;28;20452;-88
2021/03/16 17:32:21;;;;;;;14.57;9.77;;;;;;;;;;5016291;28;20499;-92
2021/03/16 17:34:47;;;;;;;7.53;4.07;;;4.60;99.90;;;;;;5017005;28;20452;-94
2021/03/16 17:37:13;;;;;;;6.60;3.57;;;4.60;99.90;;;;;;5016482;28;20503;-87
2021/03/16 17:39:40;;;;;;;6.37;3.00;;;4.60;99.90;;;;;;5013940;28;20459;-87
2021/03/16 17:42:07;;;;;;;6.47;3.03;;;4.40;99.90;;;;;;5015219;28;20440;-94
2021/03/16 17:44:33;;;;;;;8.83;3.37;;;4.60;99.90;;;;;;5025863;28;20450;-94
2021/03/16 17:47:04;;;;;;;10.93;3.77;;;4.70;99.90;;;;;;5018726;28;20844;-90
2021/03/16 17:49:30;;;;;;;6.73;3.47;;;4.70;99.90;;;;;;5015973;28;20494;-94
2021/03/16 17:51:57;;;;;;;6.07;3.40;;;4.70;99.90;;;;;;5014448;28;20456;-87
2021/03/16 17:54:23;;;;;;;5.83;4.07;;;4.60;99.90;;;;;;5018491;28;20463;-92
2021/03/16 17:56:49;;;;;;;6.97;4.20;;;4.70;99.90;;;;;;5014246;28;20480;-88
2021/03/16 17:59:15;;;;;;;9.63;3.57;;;4.80;99.90;;;;;;5013764;28;20448;-93
2021/03/16 18:01:42;;;;;;;12.13;3.73;;;4.70;99.90;;;;;;5013730;28;20436;-87
2021/03/16 18:04:09;;;;;;;4.93;3.93;;;4.60;99.90;;;;;;5018018;28;20468;-86
2021/03/16 18:06:37;;;;;;;8.17;4.20;;;4.40;99.90;;;;;;5015250;28;20491;-92
2021/03/16 18:09:04;;;;;;;7.47;4.63;;;4.20;99.90;;;;;;5015894;28;20445;-91
2021/03/16 18:11:30;;;;;;;9.43;5.00;;;4.00;99.90;;;;;;5014930;28;20459;-87
2021/03/16 18:13:56;;;;;;;9.43;5.23;;;3.90;99.90;;;;;;5014355;28;20460;-88
2021/03/16 18:16:23;;;;;;;7.63;4.67;;;;;;;;;;5013932;28;20455;-88